Iver Agile — IBHW — position and weather

sailwx.info

Track history (hours):
 
Tides and Currents Weather Stations Pressure Air Temp Water Temp Dewpoint Dewpoint Depression Visibility Wind Speed Wind Dir Waves Ship Positions

Iver Agile

Last reported at 2017-May-28 13:12 UTC. Time now 2017-Oct-23 04:45 UTC.
Position N 17°53' W 066°52'.
Warning: this ship's position is months out of date.

Length 110 m; draft 4.9 m.

Type: Ship. MMSI: 247103700.

Date/timePositionNaut miles runAvg speedWind from/ knotsBaromVisibWave heightAir tempDewpointWater temp
2017-May-28 13:12N 17°53' W 066°52'2 8.6
2017-May-28 12:58N 17°54' W 066°50'512.0
2017-May-28 12:30N 17°57' W 066°46'  
2017-May-25 19:53N 17°59' W 066°44'1 1.6
2017-May-25 19:31N 17°59' W 066°44'3 6.8
2017-May-25 19:01N 17°56' W 066°45'4 8.7
2017-May-25 18:30N 17°54' W 066°50'1 2.2
2017-May-25 17:55N 17°53' W 066°51'1 1.3
2017-May-25 17:25N 17°53' W 066°50'1 1.2
2017-May-25 16:55N 17°52' W 066°50'1 1.2
2017-May-25 16:28N 17°52' W 066°49'1 1.2
2017-May-25 15:58N 17°52' W 066°49'1 1.2
2017-May-25 15:28N 17°51' W 066°48'1 1.3
2017-May-25 14:58N 17°51' W 066°48'1 1.2
2017-May-25 14:28N 17°51' W 066°47'1 1.0
2017-May-25 13:28N 17°51' W 066°46'0 0.9
2017-May-25 12:58N 17°51' W 066°46'0 0.7
2017-May-25 12:28N 17°51' W 066°45'0 0.7
2017-May-25 11:58N 17°51' W 066°45'0 0.7
2017-May-25 11:28N 17°51' W 066°45'0 0.7
2017-May-25 10:58N 17°51' W 066°44'0 0.6
2017-May-25 10:28N 17°51' W 066°44'0 0.6
2017-May-25 09:58N 17°51' W 066°44'0 0.7
2017-May-25 09:28N 17°51' W 066°43'0 0.8
2017-May-25 08:58N 17°50' W 066°43'0 0.7
2017-May-25 08:28N 17°50' W 066°42'0 0.8
2017-May-25 07:58N 17°50' W 066°42'0 0.7
2017-May-25 07:28N 17°50' W 066°42'0 0.8
2017-May-25 06:58N 17°50' W 066°41'0 0.7
2017-May-25 06:28N 17°50' W 066°41'0 0.7
2017-May-25 05:58N 17°50' W 066°41'0 0.8
2017-May-25 05:28N 17°50' W 066°40'0 0.8
2017-May-25 04:58N 17°49' W 066°40'0 0.9
2017-May-25 04:28N 17°49' W 066°40'0 0.8
2017-May-25 03:58N 17°49' W 066°39'1 1.0
2017-May-25 03:28N 17°49' W 066°39'1 1.0
2017-May-25 02:58N 17°48' W 066°38'1 1.0
2017-May-25 02:28N 17°48' W 066°38'0 1.0
2017-May-25 01:58N 17°48' W 066°37'0 0.9
2017-May-25 01:28N 17°48' W 066°37'0 1.0
2017-May-25 00:58N 17°47' W 066°37'1 1.1
2017-May-25 00:28N 17°47' W 066°36'1 1.1
2017-May-24 23:58N 17°47' W 066°36'1 1.2
2017-May-24 23:28N 17°46' W 066°35'1 1.3
2017-May-24 22:58N 17°46' W 066°35'1 1.4
2017-May-24 22:25N 17°45' W 066°34'1 1.4
2017-May-24 21:58N 17°45' W 066°33'1 1.5
2017-May-24 21:28N 17°45' W 066°33'1 1.5
2017-May-24 20:58N 17°44' W 066°32'1 1.5
2017-May-24 20:28N 17°44' W 066°31'1 1.5
2017-May-24 19:55N 17°43' W 066°31'2 5.5
2017-May-24 19:30N 17°44' W 066°33'510.4
2017-May-24 19:00N 17°46' W 066°38'510.6
2017-May-24 18:30N 17°48' W 066°43'510.4
2017-May-24 18:01N 17°50' W 066°48'4 7.0
2017-May-24 17:25N 17°52' W 066°52'1 1.2
2017-May-24 16:55N 17°51' W 066°51'1 1.3
2017-May-24 16:25N 17°51' W 066°51'1 1.3
2017-May-24 15:58N 17°51' W 066°51'1 1.3
2017-May-24 15:28N 17°50' W 066°50'1 1.3
2017-May-24 14:58N 17°50' W 066°49'1 1.2
2017-May-24 14:25N 17°49' W 066°49'1 1.3
2017-May-24 13:25N 17°49' W 066°48'1 1.4
2017-May-24 12:55N 17°48' W 066°47'1 1.5
2017-May-24 12:28N 17°48' W 066°46'1 1.6
2017-May-24 11:58N 17°48' W 066°46'1 1.7
2017-May-24 11:25N 17°47' W 066°45'1 1.7
2017-May-24 10:58N 17°47' W 066°44'1 1.6
2017-May-24 10:28N 17°47' W 066°43'1 1.5
2017-May-24 09:58N 17°47' W 066°43'1 1.4
2017-May-24 09:28N 17°46' W 066°42'1 1.4
2017-May-24 08:58N 17°46' W 066°41'1 1.3
2017-May-24 08:28N 17°46' W 066°40'1 1.3
2017-May-24 07:58N 17°46' W 066°40'1 1.4
2017-May-24 07:28N 17°45' W 066°39'1 1.3
2017-May-24 06:58N 17°45' W 066°39'1 1.4
2017-May-24 06:28N 17°45' W 066°38'1 1.4
2017-May-24 05:58N 17°44' W 066°37'7 1.4
2017-May-24 00:33N 17°50' W 066°43'011.6
2017-May-24 00:31N 17°50' W 066°43'2 4.1
2017-May-23 23:59N 17°51' W 066°45'1 1.2
2017-May-23 23:29N 17°51' W 066°45'1 1.2
2017-May-23 22:56N 17°51' W 066°44'1 1.3
2017-May-23 22:14N 17°50' W 066°43'0 1.3
2017-May-23 21:53N 17°50' W 066°43'1 1.3
2017-May-23 21:29N 17°50' W 066°42'1 1.3
2017-May-23 20:59N 17°50' W 066°41'1 1.2
2017-May-23 20:29N 17°49' W 066°41'1 1.2
2017-May-23 19:59N 17°49' W 066°40'1 1.2
2017-May-23 19:29N 17°49' W 066°40'1 1.2
2017-May-23 18:59N 17°49' W 066°39'1 1.2
2017-May-23 18:29N 17°48' W 066°39'1 1.3
2017-May-23 17:59N 17°48' W 066°38'1 1.3
2017-May-23 17:26N 17°48' W 066°37'1 1.5
2017-May-23 16:59N 17°48' W 066°37'1 1.4
2017-May-23 16:20N 17°47' W 066°36'0 1.4
2017-May-23 15:59N 17°47' W 066°35'2 3.7
2017-May-23 15:31N 17°47' W 066°37'611.2
2017-May-23 15:01N 17°48' W 066°43'611.2
2017-May-23 14:30N 17°48' W 066°49'4 3.1
2017-May-23 13:16N 17°49' W 066°53'0 1.3
2017-May-23 12:58N 17°49' W 066°53'1 1.3
2017-May-23 12:28N 17°49' W 066°52'1 1.2
2017-May-23 11:58N 17°48' W 066°51'1 1.2
2017-May-23 11:28N 17°48' W 066°51'1 1.2
2017-May-23 10:58N 17°48' W 066°50'1 1.2
2017-May-23 10:28N 17°48' W 066°49'1 1.2
2017-May-23 09:58N 17°48' W 066°49'1 1.2
2017-May-23 09:28N 17°48' W 066°48'1 1.2
2017-May-23 08:58N 17°48' W 066°48'1 1.1
2017-May-23 08:28N 17°48' W 066°47'1 1.2
2017-May-23 07:58N 17°48' W 066°46'1 1.1
2017-May-23 07:28N 17°48' W 066°46'1 1.3
2017-May-23 06:58N 17°48' W 066°45'1 1.2
2017-May-23 06:28N 17°48' W 066°45'1 1.3
2017-May-23 05:58N 17°47' W 066°44'1 1.2
2017-May-23 05:28N 17°47' W 066°43'1 1.2
2017-May-23 04:58N 17°47' W 066°43'1 1.3
2017-May-23 04:28N 17°47' W 066°42'1 1.4
2017-May-23 03:58N 17°47' W 066°41'1 1.4
2017-May-23 03:28N 17°47' W 066°41'1 1.4
2017-May-23 02:58N 17°46' W 066°40'1 1.4
2017-May-23 02:28N 17°47' W 066°39'0 0.5
2017-May-23 02:00N 17°46' W 066°39'611.2
2017-May-23 01:30N 17°50' W 066°43'611.4
2017-May-23 01:00N 17°54' W 066°48'1 1.0
2017-May-23 00:28N 17°54' W 066°48'1 1.0
2017-May-22 23:58N 17°54' W 066°48'1 1.1
2017-May-22 23:28N 17°53' W 066°48'1 1.2
2017-May-22 22:58N 17°53' W 066°47'1 1.3
2017-May-22 22:28N 17°52' W 066°47'1 1.3
2017-May-22 21:58N 17°52' W 066°46'1 1.3
2017-May-22 21:28N 17°52' W 066°46'1 1.3
2017-May-22 20:58N 17°51' W 066°45'1 1.4
2017-May-22 20:28N 17°51' W 066°44'1 1.6
2017-May-22 19:58N 17°50' W 066°44'1 1.7
2017-May-22 19:28N 17°50' W 066°43'1 1.6
2017-May-22 18:58N 17°49' W 066°42'1 1.5
2017-May-22 18:28N 17°49' W 066°42'2 5.0
2017-May-22 18:01N 17°51' W 066°43'5 9.6
2017-May-22 17:31N 17°54' W 066°47'0 0.1
2017-May-22 16:59N 17°54' W 066°47'0 1.0
2017-May-22 16:29N 17°53' W 066°47'0 0.9
2017-May-22 15:59N 17°53' W 066°47'0 0.9
2017-May-22 15:29N 17°53' W 066°46'0 0.8
2017-May-22 14:59N 17°52' W 066°46'1 0.7
2017-May-22 13:59N 17°52' W 066°45'0 0.8
2017-May-22 13:29N 17°52' W 066°45'0 0.7
2017-May-22 12:59N 17°52' W 066°45'0 0.7
2017-May-22 12:29N 17°52' W 066°44'0 0.8
2017-May-22 12:00N 17°51' W 066°44'510.0
2017-May-22 11:30N 17°54' W 066°49'0 0.2
2017-May-22 10:59N 17°54' W 066°49'0 0.6
2017-May-22 10:26N 17°54' W 066°48'0 0.6
2017-May-22 09:59N 17°54' W 066°48'0 0.6
2017-May-22 09:29N 17°54' W 066°48'0 0.6
2017-May-22 08:59N 17°53' W 066°48'0 0.5
2017-May-22 08:23N 17°53' W 066°47'0 0.6
2017-May-22 07:59N 17°53' W 066°47'0 0.6
2017-May-22 07:29N 17°53' W 066°47'0 0.7
2017-May-22 06:59N 17°53' W 066°47'0 0.7
2017-May-22 06:29N 17°52' W 066°46'0 0.7
2017-May-22 05:59N 17°52' W 066°46'0 0.7
2017-May-22 05:29N 17°52' W 066°46'0 0.8
2017-May-22 04:59N 17°52' W 066°45'0 0.7
2017-May-22 04:29N 17°52' W 066°45'0 0.7
2017-May-22 03:59N 17°51' W 066°45'0 0.7
2017-May-22 03:29N 17°51' W 066°45'0 0.8
2017-May-22 02:59N 17°51' W 066°44'0 0.8
2017-May-22 02:29N 17°51' W 066°44'0 0.8
2017-May-22 01:59N 17°51' W 066°43'0 0.9
2017-May-22 01:26N 17°50' W 066°43'0 1.0
2017-May-22 00:59N 17°50' W 066°43'0 0.8
2017-May-22 00:31N 17°50' W 066°42'510.1
2017-May-22 00:01N 17°54' W 066°46'611.9
2017-May-21 23:30N 17°49' W 066°50'  
Track history (hours):
 
Tides and Currents Weather Stations Pressure Air Temp Water Temp Dewpoint Dewpoint Depression Visibility Wind Speed Wind Dir Waves Ship Positions

Iver Agile

Last reported at 2017-May-28 13:12 UTC. Time now 2017-Oct-23 04:45 UTC.
Position N 17°53' W 066°52'.
Warning: this ship's position is months out of date.

Length 110 m; draft 4.9 m.

Type: Ship. MMSI: 247103700.

Date/timePositionNaut miles runAvg speedWind from/ knotsBaromVisibWave heightAir tempDewpointWater temp
2017-May-28 13:12N 17°53' W 066°52'2 8.6
2017-May-28 12:58N 17°54' W 066°50'512.0
2017-May-28 12:30N 17°57' W 066°46'  
2017-May-25 19:53N 17°59' W 066°44'1 1.6
2017-May-25 19:31N 17°59' W 066°44'3 6.8
2017-May-25 19:01N 17°56' W 066°45'4 8.7
2017-May-25 18:30N 17°54' W 066°50'1 2.2
2017-May-25 17:55N 17°53' W 066°51'1 1.3
2017-May-25 17:25N 17°53' W 066°50'1 1.2
2017-May-25 16:55N 17°52' W 066°50'1 1.2
2017-May-25 16:28N 17°52' W 066°49'1 1.2
2017-May-25 15:58N 17°52' W 066°49'1 1.2
2017-May-25 15:28N 17°51' W 066°48'1 1.3
2017-May-25 14:58N 17°51' W 066°48'1 1.2
2017-May-25 14:28N 17°51' W 066°47'1 1.0
2017-May-25 13:28N 17°51' W 066°46'0 0.9
2017-May-25 12:58N 17°51' W 066°46'0 0.7
2017-May-25 12:28N 17°51' W 066°45'0 0.7
2017-May-25 11:58N 17°51' W 066°45'0 0.7
2017-May-25 11:28N 17°51' W 066°45'0 0.7
2017-May-25 10:58N 17°51' W 066°44'0 0.6
2017-May-25 10:28N 17°51' W 066°44'0 0.6
2017-May-25 09:58N 17°51' W 066°44'0 0.7
2017-May-25 09:28N 17°51' W 066°43'0 0.8
2017-May-25 08:58N 17°50' W 066°43'0 0.7
2017-May-25 08:28N 17°50' W 066°42'0 0.8
2017-May-25 07:58N 17°50' W 066°42'0 0.7
2017-May-25 07:28N 17°50' W 066°42'0 0.8
2017-May-25 06:58N 17°50' W 066°41'0 0.7
2017-May-25 06:28N 17°50' W 066°41'0 0.7
2017-May-25 05:58N 17°50' W 066°41'0 0.8
2017-May-25 05:28N 17°50' W 066°40'0 0.8
2017-May-25 04:58N 17°49' W 066°40'0 0.9
2017-May-25 04:28N 17°49' W 066°40'0 0.8
2017-May-25 03:58N 17°49' W 066°39'1 1.0
2017-May-25 03:28N 17°49' W 066°39'1 1.0
2017-May-25 02:58N 17°48' W 066°38'1 1.0
2017-May-25 02:28N 17°48' W 066°38'0 1.0
2017-May-25 01:58N 17°48' W 066°37'0 0.9
2017-May-25 01:28N 17°48' W 066°37'0 1.0
2017-May-25 00:58N 17°47' W 066°37'1 1.1
2017-May-25 00:28N 17°47' W 066°36'1 1.1
2017-May-24 23:58N 17°47' W 066°36'1 1.2
2017-May-24 23:28N 17°46' W 066°35'1 1.3
2017-May-24 22:58N 17°46' W 066°35'1 1.4
2017-May-24 22:25N 17°45' W 066°34'1 1.4
2017-May-24 21:58N 17°45' W 066°33'1 1.5
2017-May-24 21:28N 17°45' W 066°33'1 1.5
2017-May-24 20:58N 17°44' W 066°32'1 1.5
2017-May-24 20:28N 17°44' W 066°31'1 1.5
2017-May-24 19:55N 17°43' W 066°31'2 5.5
2017-May-24 19:30N 17°44' W 066°33'510.4
2017-May-24 19:00N 17°46' W 066°38'510.6
2017-May-24 18:30N 17°48' W 066°43'510.4
2017-May-24 18:01N 17°50' W 066°48'4 7.0
2017-May-24 17:25N 17°52' W 066°52'1 1.2
2017-May-24 16:55N 17°51' W 066°51'1 1.3
2017-May-24 16:25N 17°51' W 066°51'1 1.3
2017-May-24 15:58N 17°51' W 066°51'1 1.3
2017-May-24 15:28N 17°50' W 066°50'1 1.3
2017-May-24 14:58N 17°50' W 066°49'1 1.2
2017-May-24 14:25N 17°49' W 066°49'1 1.3
2017-May-24 13:25N 17°49' W 066°48'1 1.4
2017-May-24 12:55N 17°48' W 066°47'1 1.5
2017-May-24 12:28N 17°48' W 066°46'1 1.6
2017-May-24 11:58N 17°48' W 066°46'1 1.7
2017-May-24 11:25N 17°47' W 066°45'1 1.7
2017-May-24 10:58N 17°47' W 066°44'1 1.6
2017-May-24 10:28N 17°47' W 066°43'1 1.5
2017-May-24 09:58N 17°47' W 066°43'1 1.4
2017-May-24 09:28N 17°46' W 066°42'1 1.4
2017-May-24 08:58N 17°46' W 066°41'1 1.3
2017-May-24 08:28N 17°46' W 066°40'1 1.3
2017-May-24 07:58N 17°46' W 066°40'1 1.4
2017-May-24 07:28N 17°45' W 066°39'1 1.3
2017-May-24 06:58N 17°45' W 066°39'1 1.4
2017-May-24 06:28N 17°45' W 066°38'1 1.4
2017-May-24 05:58N 17°44' W 066°37'7 1.4
2017-May-24 00:33N 17°50' W 066°43'011.6
2017-May-24 00:31N 17°50' W 066°43'2 4.1
2017-May-23 23:59N 17°51' W 066°45'1 1.2
2017-May-23 23:29N 17°51' W 066°45'1 1.2
2017-May-23 22:56N 17°51' W 066°44'1 1.3
2017-May-23 22:14N 17°50' W 066°43'0 1.3
2017-May-23 21:53N 17°50' W 066°43'1 1.3
2017-May-23 21:29N 17°50' W 066°42'1 1.3
2017-May-23 20:59N 17°50' W 066°41'1 1.2
2017-May-23 20:29N 17°49' W 066°41'1 1.2
2017-May-23 19:59N 17°49' W 066°40'1 1.2
2017-May-23 19:29N 17°49' W 066°40'1 1.2
2017-May-23 18:59N 17°49' W 066°39'1 1.2
2017-May-23 18:29N 17°48' W 066°39'1 1.3
2017-May-23 17:59N 17°48' W 066°38'1 1.3
2017-May-23 17:26N 17°48' W 066°37'1 1.5
2017-May-23 16:59N 17°48' W 066°37'1 1.4
2017-May-23 16:20N 17°47' W 066°36'0 1.4
2017-May-23 15:59N 17°47' W 066°35'2 3.7
2017-May-23 15:31N 17°47' W 066°37'611.2
2017-May-23 15:01N 17°48' W 066°43'611.2
2017-May-23 14:30N 17°48' W 066°49'4 3.1
2017-May-23 13:16N 17°49' W 066°53'0 1.3
2017-May-23 12:58N 17°49' W 066°53'1 1.3
2017-May-23 12:28N 17°49' W 066°52'1 1.2
2017-May-23 11:58N 17°48' W 066°51'1 1.2
2017-May-23 11:28N 17°48' W 066°51'1 1.2
2017-May-23 10:58N 17°48' W 066°50'1 1.2
2017-May-23 10:28N 17°48' W 066°49'1 1.2
2017-May-23 09:58N 17°48' W 066°49'1 1.2
2017-May-23 09:28N 17°48' W 066°48'1 1.2
2017-May-23 08:58N 17°48' W 066°48'1 1.1
2017-May-23 08:28N 17°48' W 066°47'1 1.2
2017-May-23 07:58N 17°48' W 066°46'1 1.1
2017-May-23 07:28N 17°48' W 066°46'1 1.3
2017-May-23 06:58N 17°48' W 066°45'1 1.2
2017-May-23 06:28N 17°48' W 066°45'1 1.3
2017-May-23 05:58N 17°47' W 066°44'1 1.2
2017-May-23 05:28N 17°47' W 066°43'1 1.2
2017-May-23 04:58N 17°47' W 066°43'1 1.3
2017-May-23 04:28N 17°47' W 066°42'1 1.4
2017-May-23 03:58N 17°47' W 066°41'1 1.4
2017-May-23 03:28N 17°47' W 066°41'1 1.4
2017-May-23 02:58N 17°46' W 066°40'1 1.4
2017-May-23 02:28N 17°47' W 066°39'0 0.5
2017-May-23 02:00N 17°46' W 066°39'611.2
2017-May-23 01:30N 17°50' W 066°43'611.4
2017-May-23 01:00N 17°54' W 066°48'1 1.0
2017-May-23 00:28N 17°54' W 066°48'1 1.0
2017-May-22 23:58N 17°54' W 066°48'1 1.1
2017-May-22 23:28N 17°53' W 066°48'1 1.2
2017-May-22 22:58N 17°53' W 066°47'1 1.3
2017-May-22 22:28N 17°52' W 066°47'1 1.3
2017-May-22 21:58N 17°52' W 066°46'1 1.3
2017-May-22 21:28N 17°52' W 066°46'1 1.3
2017-May-22 20:58N 17°51' W 066°45'1 1.4
2017-May-22 20:28N 17°51' W 066°44'1 1.6
2017-May-22 19:58N 17°50' W 066°44'1 1.7
2017-May-22 19:28N 17°50' W 066°43'1 1.6
2017-May-22 18:58N 17°49' W 066°42'1 1.5
2017-May-22 18:28N 17°49' W 066°42'2 5.0
2017-May-22 18:01N 17°51' W 066°43'5 9.6
2017-May-22 17:31N 17°54' W 066°47'0 0.1
2017-May-22 16:59N 17°54' W 066°47'0 1.0
2017-May-22 16:29N 17°53' W 066°47'0 0.9
2017-May-22 15:59N 17°53' W 066°47'0 0.9
2017-May-22 15:29N 17°53' W 066°46'0 0.8
2017-May-22 14:59N 17°52' W 066°46'1 0.7
2017-May-22 13:59N 17°52' W 066°45'0 0.8
2017-May-22 13:29N 17°52' W 066°45'0 0.7
2017-May-22 12:59N 17°52' W 066°45'0 0.7
2017-May-22 12:29N 17°52' W 066°44'0 0.8
2017-May-22 12:00N 17°51' W 066°44'510.0
2017-May-22 11:30N 17°54' W 066°49'0 0.2
2017-May-22 10:59N 17°54' W 066°49'0 0.6
2017-May-22 10:26N 17°54' W 066°48'0 0.6
2017-May-22 09:59N 17°54' W 066°48'0 0.6
2017-May-22 09:29N 17°54' W 066°48'0 0.6
2017-May-22 08:59N 17°53' W 066°48'0 0.5
2017-May-22 08:23N 17°53' W 066°47'0 0.6
2017-May-22 07:59N 17°53' W 066°47'0 0.6
2017-May-22 07:29N 17°53' W 066°47'0 0.7
2017-May-22 06:59N 17°53' W 066°47'0 0.7
2017-May-22 06:29N 17°52' W 066°46'0 0.7
2017-May-22 05:59N 17°52' W 066°46'0 0.7
2017-May-22 05:29N 17°52' W 066°46'0 0.8
2017-May-22 04:59N 17°52' W 066°45'0 0.7
2017-May-22 04:29N 17°52' W 066°45'0 0.7
2017-May-22 03:59N 17°51' W 066°45'0 0.7
2017-May-22 03:29N 17°51' W 066°45'0 0.8
2017-May-22 02:59N 17°51' W 066°44'0 0.8
2017-May-22 02:29N 17°51' W 066°44'0 0.8
2017-May-22 01:59N 17°51' W 066°43'0 0.9
2017-May-22 01:26N 17°50' W 066°43'0 1.0
2017-May-22 00:59N 17°50' W 066°43'0 0.8
2017-May-22 00:31N 17°50' W 066°42'510.1
2017-May-22 00:01N 17°54' W 066°46'611.9
2017-May-21 23:30N 17°49' W 066°50'  

Dump ship's entire track history